Nearby METAR Reports

 

KNUQ - Moffett Nas/Mtn, California, USA
Distance from station: N 9mi, 14km
Updated: Thu, 20-Jan-2022 5:35am PST
Fog, Overcast
Fog, Overcast
 Wind from calm
Wind: Calm
Temperature: 45°F , 7°C
Dew Point: 45°F , 7°C
Humidity: 100%
Barometer: 30.31 inHg , 1026.4 hPa
Summary: Fog
Clouds: Overcast
Visibility: less than 1/4 mile , 0.4 km
Cloud details: Overcast 200 ft
2022/01/20 13:35 KNUQ 201335Z AUTO 00000KT M1/4SM FG OVC002 07/07 A3031 RMK AO2
KSJC - San Jose, California, USA
Distance from station: NE 9mi, 14km
Updated: Thu, 20-Jan-2022 5:53am PST
Few Clouds
Few Clouds
 Wind from calm
Wind: Calm
Temperature: 43°F , 6°C
Dew Point: 39°F , 4°C
Humidity: 87%
Barometer: 30.31 inHg , 1026.4 hPa
Clouds: Few Clouds
Visibility: 10 miles , 16 km
Cloud details: Few Clouds 800 ft
2022/01/20 13:53 KSJC 201353Z 00000KT 10SM FEW008 06/04 A3031 RMK AO2 SLP262 T00560039
 
KRHV - San Jose/Reid, California, USA
Distance from station: ENE 12mi, 19km
Updated: Wed, 19-Jan-2022 9:47pm PST
NOT Current
Clear
Clear
 Wind from calm
Wind: Calm
Temperature: 48°F , 9°C
Dew Point: 43°F , 6°C
Humidity: 82%
Barometer: 30.28 inHg , 1025.4 hPa
Clouds: Clear
Visibility: 10 miles , 16 km
2022/01/20 05:47 KRHV 200547Z 00000KT 10SM SKC 09/06 A3028 RMK LAST
KPAO - Palo Alto, California, USA
Distance from station: NNW 14mi, 23km
Updated: Wed, 19-Jan-2022 2:47pm PST
NOT Current
Clear
Clear
 Wind from NNW
Wind: NNW 9 mph , 15 km/h
Temperature: 59°F , 15°C
Dew Point: 46°F , 8°C
Humidity: 63%
Barometer: 30.21 inHg , 1023 hPa
Clouds: Clear
Visibility: 10 miles , 16 km
2022/01/19 22:47 KPAO 192247Z 33008KT 10SM SKC 15/08 A3021
 
KSQL - San Carlos Airpo, California, USA
Distance from station: NW 21mi, 34km
Updated: Thu, 20-Jan-2022 5:35am PST
Few Clouds
Few Clouds
 Wind from calm
Wind: Calm
Temperature: 43°F , 6°C
Dew Point: 41°F , 5°C
Humidity: 93%
Barometer: 30.32 inHg , 1026.8 hPa
Clouds: Few Clouds
Visibility: 9 miles , 14 km
Cloud details: Few Clouds 400 ft
2022/01/20 13:35 KSQL 201335Z AUTO 00000KT 9SM FEW004 06/05 A3032 RMK AO2
KWVI - Watsonville, California, USA
Distance from station: SSE 27mi, 44km
Updated: Thu, 20-Jan-2022 5:53am PST
Clear
Clear
 Wind from calm
Wind: Calm
Temperature: 37°F , 3°C
Dew Point: 37°F , 3°C
Humidity: 100%
Barometer: 30.30 inHg , 1026.1 hPa
Clouds: Clear
Visibility: 10 miles , 16 km
2022/01/20 13:53 KWVI 201353Z AUTO 00000KT 10SM CLR 03/03 A3030 RMK AO2 SLP259 T00330033
 
KHWD - Hayward, California, USA
Distance from station: N 28mi, 44km
Updated: Thu, 20-Jan-2022 5:54am PST
Fog, Overcast
Fog, Overcast
 Wind from calm
Wind: Calm
Temperature: 45°F , 7°C
Dew Point: 45°F , 7°C
Humidity: 100%
Barometer: 30.31 inHg , 1026.4 hPa
Summary: Fog
Clouds: Overcast
Visibility: 1/4 mile , 0.4 km
Cloud details: Overcast 200 ft
2022/01/20 13:54 KHWD 201354Z AUTO 00000KT 1/4SM FG VV002 07/07 A3031 RMK AO2 SLP272 T00720067
KSFO - San Francisco, California, USA
Distance from station: NW 30mi, 49km
Updated: Thu, 20-Jan-2022 5:34am PST
Fog, Overcast
Fog, Overcast
 Wind from calm
Wind: Calm
Temperature: 46°F , 8°C
Dew Point: 46°F , 8°C
Humidity: 100%
Barometer: 30.30 inHg , 1026.1 hPa
Summary: Fog
Clouds: Overcast
Visibility: 1/2 mile , 0.8 km
Cloud details: Overcast 200 ft
2022/01/20 13:34 KSFO 201334Z 00000KT 1/2SM R28R/0800FT FG VV002 08/08 A3030 RMK AO2 T00780078 $
 
KHAF - Half Moon Bay, California, USA
Distance from station: WNW 31mi, 50km
Updated: Thu, 20-Jan-2022 5:35am PST
Fog, Overcast
Fog, Overcast
 Wind from calm
Wind: Calm
Temperature: 45°F , 7°C
Dew Point: 45°F , 7°C
Humidity: 100%
Barometer: 30.30 inHg , 1026.1 hPa
Summary: Fog
Clouds: Overcast
Visibility: less than 1/4 mile , 0.4 km
Cloud details: Overcast 200 ft
2022/01/20 13:35 KHAF 201335Z AUTO 00000KT M1/4SM FG OVC002 07/07 A3030 RMK AO2
KOAK - Oakland, California, USA
Distance from station: NNW 31mi, 50km
Updated: Thu, 20-Jan-2022 5:53am PST
Fog, Overcast
Fog, Overcast
 Wind from calm
Wind: Calm
Temperature: 45°F , 7°C
Dew Point: 45°F , 7°C
Humidity: 100%
Barometer: 30.32 inHg , 1026.8 hPa
Summary: Fog
Clouds: Overcast
Visibility: 1/4 mile , 0.4 km
Cloud details: Overcast 200 ft
2022/01/20 13:53 KOAK 201353Z 00000KT 1/4SM FG VV002 07/07 A3032 RMK AO2 SLP267 T00720072
 
KLVK - Livermore, California, USA
Distance from station: NNE 31mi, 51km
Updated: Thu, 20-Jan-2022 5:53am PST
Clear
Clear
 Wind from ENE
Wind: ENE 3 mph , 6 km/h
Temperature: 37°F , 3°C
Dew Point: 36°F , 2°C
Humidity: 93%
Barometer: 30.31 inHg , 1026.4 hPa
Clouds: Clear
Visibility: 10 miles , 16 km
2022/01/20 13:53 KLVK 201353Z AUTO 07003KT 10SM CLR 03/02 A3031 RMK AO2 SLP264 T00280022
KCVH - Hollister Muni, California, USA
Distance from station: SE 42mi, 68km
Updated: Thu, 20-Jan-2022 5:55am PST
Clear
Clear
 Wind from calm
Wind: Calm
Temperature: 36°F , 2°C
Dew Point: 34°F , 1°C
Humidity: 93%
Barometer: 30.32 inHg , 1026.8 hPa
Clouds: Clear
Visibility: 10 miles , 16 km
2022/01/20 13:55 KCVH 201355Z AUTO 00000KT 10SM CLR 02/01 A3032 RMK A01
 
KSNS - Salinas, California, USA
Distance from station: SSE 48mi, 77km
Updated: Thu, 20-Jan-2022 5:53am PST
Clear
Clear
 Wind from ESE
Wind: ESE 9 mph , 15 km/h
Temperature: 45°F , 7°C
Wind Chill: 40°F , 4°C
Dew Point: 39°F , 4°C
Humidity: 81%
Barometer: 30.29 inHg , 1025.7 hPa
Clouds: Clear
Visibility: 10 miles , 16 km
2022/01/20 13:53 KSNS 201353Z AUTO 12008KT 10SM CLR 07/04 A3029 RMK AO2 SLP266 T00720044 TSNO
KMRY - Monterey, California, USA
Distance from station: SSE 49mi, 78km
Updated: Thu, 20-Jan-2022 5:54am PST
Clear
Clear
 Wind from calm
Wind: Calm
Temperature: 45°F , 7°C
Dew Point: 39°F , 4°C
Humidity: 81%
Barometer: 30.28 inHg , 1025.4 hPa
Clouds: Clear
Visibility: 10 miles , 16 km
2022/01/20 13:54 KMRY 201354Z 00000KT 10SM CLR 07/04 A3028 RMK AO2 SLP266 T00670044
 
KCCR - Concord, California, USA
Distance from station: N 50mi, 81km
Updated: Thu, 20-Jan-2022 5:53am PST
Clear
Clear
 Wind from SE
Wind: SE 3 mph , 6 km/h
Temperature: 39°F , 4°C
Dew Point: 37°F , 3°C
Humidity: 93%
Barometer: 30.32 inHg , 1026.8 hPa
Clouds: Clear
Visibility: 10 miles , 16 km
2022/01/20 13:53 KCCR 201353Z AUTO 14003KT 10SM CLR 04/03 A3032 RMK AO2 SLP251 T00440033

Metar display script from Saratoga-Weather.org